sensor_id;sensor_type;location;lat;lon;timestamp;temperature;humidity
45761;DHT22;31471;51.040;14.414;2022-11-10T00:01:38;8.80;99.90
45761;DHT22;31471;51.040;14.414;2022-11-10T00:04:22;8.70;99.90
45761;DHT22;31471;51.040;14.414;2022-11-10T00:07:06;8.70;99.90
45761;DHT22;31471;51.040;14.414;2022-11-10T00:09:50;8.70;99.90
45761;DHT22;31471;51.040;14.414;2022-11-10T00:12:36;8.70;99.90
45761;DHT22;31471;51.040;14.414;2022-11-10T00:15:20;8.70;99.90
45761;DHT22;31471;51.040;14.414;2022-11-10T00:18:23;8.70;99.90
45761;DHT22;31471;51.040;14.414;2022-11-10T00:21:09;8.70;99.90
45761;DHT22;31471;51.040;14.414;2022-11-10T00:23:54;8.70;99.90
45761;DHT22;31471;51.040;14.414;2022-11-10T00:26:38;8.70;99.90
45761;DHT22;31471;51.040;14.414;2022-11-10T00:29:22;8.70;99.90
45761;DHT22;31471;51.040;14.414;2022-11-10T00:32:07;8.70;99.90
45761;DHT22;31471;51.040;14.414;2022-11-10T00:34:52;8.70;99.90
45761;DHT22;31471;51.040;14.414;2022-11-10T00:37:36;8.70;99.90
45761;DHT22;31471;51.040;14.414;2022-11-10T00:40:20;8.70;99.90
45761;DHT22;31471;51.040;14.414;2022-11-10T00:43:04;8.70;99.90
45761;DHT22;31471;51.040;14.414;2022-11-10T00:45:48;8.70;99.90
45761;DHT22;31471;51.040;14.414;2022-11-10T00:48:32;8.70;99.90
45761;DHT22;31471;51.040;14.414;2022-11-10T00:51:22;8.70;99.90
45761;DHT22;31471;51.040;14.414;2022-11-10T00:54:07;8.70;99.90
45761;DHT22;31471;51.040;14.414;2022-11-10T00:56:51;8.70;99.90
45761;DHT22;31471;51.040;14.414;2022-11-10T00:59:35;8.70;99.90
45761;DHT22;31471;51.040;14.414;2022-11-10T01:02:19;8.80;99.90
45761;DHT22;31471;51.040;14.414;2022-11-10T01:05:03;8.80;99.90
45761;DHT22;31471;51.040;14.414;2022-11-10T01:07:48;8.70;99.90
45761;DHT22;31471;51.040;14.414;2022-11-10T01:10:32;8.70;99.90
45761;DHT22;31471;51.040;14.414;2022-11-10T01:13:17;8.70;99.90
45761;DHT22;31471;51.040;14.414;2022-11-10T01:16:12;8.70;99.90
45761;DHT22;31471;51.040;14.414;2022-11-10T01:18:59;8.70;99.90
45761;DHT22;31471;51.040;14.414;2022-11-10T01:21:43;8.70;99.90
45761;DHT22;31471;51.040;14.414;2022-11-10T01:24:27;8.70;99.90
45761;DHT22;31471;51.040;14.414;2022-11-10T01:27:11;8.70;99.90
45761;DHT22;31471;51.040;14.414;2022-11-10T01:29:55;8.70;99.90
45761;DHT22;31471;51.040;14.414;2022-11-10T01:32:40;8.60;99.90
45761;DHT22;31471;51.040;14.414;2022-11-10T01:35:24;8.60;99.90
45761;DHT22;31471;51.040;14.414;2022-11-10T01:38:08;8.60;99.90
45761;DHT22;31471;51.040;14.414;2022-11-10T01:40:52;8.60;99.90
45761;DHT22;31471;51.040;14.414;2022-11-10T01:43:36;8.60;99.90
45761;DHT22;31471;51.040;14.414;2022-11-10T01:46:20;8.60;99.90
45761;DHT22;31471;51.040;14.414;2022-11-10T01:49:05;8.60;99.90
45761;DHT22;31471;51.040;14.414;2022-11-10T01:51:55;8.50;99.90
45761;DHT22;31471;51.040;14.414;2022-11-10T01:54:44;8.50;99.90
45761;DHT22;31471;51.040;14.414;2022-11-10T01:57:29;8.50;99.90
45761;DHT22;31471;51.040;14.414;2022-11-10T02:00:14;8.40;99.90
45761;DHT22;31471;51.040;14.414;2022-11-10T02:03:28;8.50;99.90
45761;DHT22;31471;51.040;14.414;2022-11-10T02:06:16;8.50;99.90
45761;DHT22;31471;51.040;14.414;2022-11-10T02:09:01;8.50;99.90
45761;DHT22;31471;51.040;14.414;2022-11-10T02:11:46;8.50;99.90
45761;DHT22;31471;51.040;14.414;2022-11-10T02:14:32;8.50;99.90
45761;DHT22;31471;51.040;14.414;2022-11-10T02:17:16;8.50;99.90
45761;DHT22;31471;51.040;14.414;2022-11-10T02:20:03;8.40;99.90
45761;DHT22;31471;51.040;14.414;2022-11-10T02:22:48;8.50;99.90
45761;DHT22;31471;51.040;14.414;2022-11-10T02:25:32;8.40;99.90
45761;DHT22;31471;51.040;14.414;2022-11-10T02:28:16;8.40;99.90
45761;DHT22;31471;51.040;14.414;2022-11-10T02:31:01;8.40;99.90
45761;DHT22;31471;51.040;14.414;2022-11-10T02:33:45;8.40;99.90
45761;DHT22;31471;51.040;14.414;2022-11-10T02:36:29;8.40;99.90
45761;DHT22;31471;51.040;14.414;2022-11-10T02:39:13;8.30;99.90
45761;DHT22;31471;51.040;14.414;2022-11-10T02:41:57;8.30;99.90
45761;DHT22;31471;51.040;14.414;2022-11-10T02:44:42;8.20;99.90
45761;DHT22;31471;51.040;14.414;2022-11-10T02:47:26;8.20;99.90
45761;DHT22;31471;51.040;14.414;2022-11-10T02:50:10;8.10;99.90
45761;DHT22;31471;51.040;14.414;2022-11-10T02:52:54;8.10;99.90
45761;DHT22;31471;51.040;14.414;2022-11-10T02:55:38;8.00;99.90
45761;DHT22;31471;51.040;14.414;2022-11-10T02:58:22;8.00;99.90
45761;DHT22;31471;51.040;14.414;2022-11-10T03:01:06;7.90;99.90
45761;DHT22;31471;51.040;14.414;2022-11-10T03:03:50;7.90;99.90
45761;DHT22;31471;51.040;14.414;2022-11-10T03:06:34;7.80;99.90
45761;DHT22;31471;51.040;14.414;2022-11-10T03:09:19;7.80;99.90
45761;DHT22;31471;51.040;14.414;2022-11-10T03:12:03;7.80;99.90
45761;DHT22;31471;51.040;14.414;2022-11-10T03:14:47;7.80;99.90
45761;DHT22;31471;51.040;14.414;2022-11-10T03:17:31;7.70;99.90
45761;DHT22;31471;51.040;14.414;2022-11-10T03:20:16;7.70;99.90
45761;DHT22;31471;51.040;14.414;2022-11-10T03:23:02;7.70;99.90
45761;DHT22;31471;51.040;14.414;2022-11-10T03:25:47;7.60;99.90
45761;DHT22;31471;51.040;14.414;2022-11-10T03:28:31;7.60;99.90
45761;DHT22;31471;51.040;14.414;2022-11-10T03:31:15;7.60;99.90
45761;DHT22;31471;51.040;14.414;2022-11-10T03:33:59;7.50;99.90
45761;DHT22;31471;51.040;14.414;2022-11-10T03:36:43;7.50;99.90
45761;DHT22;31471;51.040;14.414;2022-11-10T03:39:27;7.40;99.90
45761;DHT22;31471;51.040;14.414;2022-11-10T03:42:12;7.40;99.90
45761;DHT22;31471;51.040;14.414;2022-11-10T03:44:56;7.30;99.90
45761;DHT22;31471;51.040;14.414;2022-11-10T03:47:43;7.30;99.90
45761;DHT22;31471;51.040;14.414;2022-11-10T03:50:29;7.30;99.90
45761;DHT22;31471;51.040;14.414;2022-11-10T03:53:13;7.30;99.90
45761;DHT22;31471;51.040;14.414;2022-11-10T03:56:01;7.20;99.90
45761;DHT22;31471;51.040;14.414;2022-11-10T03:58:45;7.20;99.90
45761;DHT22;31471;51.040;14.414;2022-11-10T04:01:29;7.10;99.90
45761;DHT22;31471;51.040;14.414;2022-11-10T04:04:13;7.20;99.90
45761;DHT22;31471;51.040;14.414;2022-11-10T04:07:21;7.10;99.90
45761;DHT22;31471;51.040;14.414;2022-11-10T04:10:24;7.10;99.90
45761;DHT22;31471;51.040;14.414;2022-11-10T04:13:08;7.10;99.90
45761;DHT22;31471;51.040;14.414;2022-11-10T04:16:12;7.10;99.90
45761;DHT22;31471;51.040;14.414;2022-11-10T04:18:56;7.10;99.90
45761;DHT22;31471;51.040;14.414;2022-11-10T04:21:40;7.00;99.90
45761;DHT22;31471;51.040;14.414;2022-11-10T04:24:25;7.10;99.90
45761;DHT22;31471;51.040;14.414;2022-11-10T04:27:09;7.00;99.90
45761;DHT22;31471;51.040;14.414;2022-11-10T04:29:53;7.00;99.90
45761;DHT22;31471;51.040;14.414;2022-11-10T04:32:37;6.90;99.90
45761;DHT22;31471;51.040;14.414;2022-11-10T04:35:21;6.90;99.90
45761;DHT22;31471;51.040;14.414;2022-11-10T04:38:05;6.80;99.90
45761;DHT22;31471;51.040;14.414;2022-11-10T04:40:50;6.80;99.90
45761;DHT22;31471;51.040;14.414;2022-11-10T04:43:34;6.80;99.90
45761;DHT22;31471;51.040;14.414;2022-11-10T04:46:22;6.70;99.90
45761;DHT22;31471;51.040;14.414;2022-11-10T04:49:07;6.80;99.90
45761;DHT22;31471;51.040;14.414;2022-11-10T04:51:51;6.70;99.90
45761;DHT22;31471;51.040;14.414;2022-11-10T04:54:35;6.80;99.90
45761;DHT22;31471;51.040;14.414;2022-11-10T04:57:19;6.80;99.90
45761;DHT22;31471;51.040;14.414;2022-11-10T05:00:03;6.80;99.90
45761;DHT22;31471;51.040;14.414;2022-11-10T05:02:50;6.80;99.90
45761;DHT22;31471;51.040;14.414;2022-11-10T05:05:34;6.70;99.90
45761;DHT22;31471;51.040;14.414;2022-11-10T05:08:18;6.60;99.90
45761;DHT22;31471;51.040;14.414;2022-11-10T05:11:02;6.60;99.90
45761;DHT22;31471;51.040;14.414;2022-11-10T05:13:46;6.60;99.90
45761;DHT22;31471;51.040;14.414;2022-11-10T05:16:30;6.60;99.90
45761;DHT22;31471;51.040;14.414;2022-11-10T05:19:14;6.50;99.90
45761;DHT22;31471;51.040;14.414;2022-11-10T05:21:59;6.50;99.90
45761;DHT22;31471;51.040;14.414;2022-11-10T05:24:43;6.50;99.90
45761;DHT22;31471;51.040;14.414;2022-11-10T05:27:26;6.50;99.90
45761;DHT22;31471;51.040;14.414;2022-11-10T05:30:12;6.50;99.90
45761;DHT22;31471;51.040;14.414;2022-11-10T05:32:57;6.60;99.90
45761;DHT22;31471;51.040;14.414;2022-11-10T05:35:41;6.50;99.90
45761;DHT22;31471;51.040;14.414;2022-11-10T05:38:27;6.60;99.90
45761;DHT22;31471;51.040;14.414;2022-11-10T05:41:11;6.70;99.90
45761;DHT22;31471;51.040;14.414;2022-11-10T05:43:55;6.70;99.90
45761;DHT22;31471;51.040;14.414;2022-11-10T05:46:39;6.70;99.90
45761;DHT22;31471;51.040;14.414;2022-11-10T05:49:23;6.80;99.90
45761;DHT22;31471;51.040;14.414;2022-11-10T05:52:07;6.80;99.90
45761;DHT22;31471;51.040;14.414;2022-11-10T05:54:52;6.90;99.90
45761;DHT22;31471;51.040;14.414;2022-11-10T05:57:42;7.00;99.90
45761;DHT22;31471;51.040;14.414;2022-11-10T06:00:29;7.00;99.90
45761;DHT22;31471;51.040;14.414;2022-11-10T06:03:15;7.10;99.90
45761;DHT22;31471;51.040;14.414;2022-11-10T06:06:00;7.20;99.90
45761;DHT22;31471;51.040;14.414;2022-11-10T06:08:44;7.20;99.90
45761;DHT22;31471;51.040;14.414;2022-11-10T06:11:28;7.30;99.90
45761;DHT22;31471;51.040;14.414;2022-11-10T06:14:12;7.30;99.90
45761;DHT22;31471;51.040;14.414;2022-11-10T06:16:56;7.30;99.90
45761;DHT22;31471;51.040;14.414;2022-11-10T06:19:40;7.30;99.90
45761;DHT22;31471;51.040;14.414;2022-11-10T06:22:24;7.30;99.90
45761;DHT22;31471;51.040;14.414;2022-11-10T06:25:08;7.40;99.90
45761;DHT22;31471;51.040;14.414;2022-11-10T06:27:53;7.40;99.90
45761;DHT22;31471;51.040;14.414;2022-11-10T06:30:38;7.30;99.90
45761;DHT22;31471;51.040;14.414;2022-11-10T06:33:22;7.30;99.90
45761;DHT22;31471;51.040;14.414;2022-11-10T06:36:06;7.30;99.90
45761;DHT22;31471;51.040;14.414;2022-11-10T06:38:50;7.30;99.90
45761;DHT22;31471;51.040;14.414;2022-11-10T06:41:35;7.30;99.90
45761;DHT22;31471;51.040;14.414;2022-11-10T06:44:19;7.20;99.90
45761;DHT22;31471;51.040;14.414;2022-11-10T06:47:03;7.20;99.90
45761;DHT22;31471;51.040;14.414;2022-11-10T06:49:47;7.30;99.90
45761;DHT22;31471;51.040;14.414;2022-11-10T06:52:31;7.40;99.90
45761;DHT22;31471;51.040;14.414;2022-11-10T06:55:15;7.50;99.90
45761;DHT22;31471;51.040;14.414;2022-11-10T06:57:59;7.60;99.90
45761;DHT22;31471;51.040;14.414;2022-11-10T07:00:44;7.70;99.90
45761;DHT22;31471;51.040;14.414;2022-11-10T07:03:28;7.80;99.90
45761;DHT22;31471;51.040;14.414;2022-11-10T07:06:12;7.90;99.90
45761;DHT22;31471;51.040;14.414;2022-11-10T07:08:56;8.00;99.90
45761;DHT22;31471;51.040;14.414;2022-11-10T07:11:41;8.10;99.90
45761;DHT22;31471;51.040;14.414;2022-11-10T07:14:25;8.20;99.90
45761;DHT22;31471;51.040;14.414;2022-11-10T07:17:09;8.30;99.90
45761;DHT22;31471;51.040;14.414;2022-11-10T07:19:53;8.40;99.90
45761;DHT22;31471;51.040;14.414;2022-11-10T07:22:37;8.50;99.90
45761;DHT22;31471;51.040;14.414;2022-11-10T07:25:21;8.60;99.90
45761;DHT22;31471;51.040;14.414;2022-11-10T07:28:07;8.70;99.90
45761;DHT22;31471;51.040;14.414;2022-11-10T07:30:53;8.80;99.90
45761;DHT22;31471;51.040;14.414;2022-11-10T07:33:37;8.90;99.90
45761;DHT22;31471;51.040;14.414;2022-11-10T07:36:21;9.00;99.90
45761;DHT22;31471;51.040;14.414;2022-11-10T07:39:05;9.10;99.90
45761;DHT22;31471;51.040;14.414;2022-11-10T07:41:49;9.10;99.90
45761;DHT22;31471;51.040;14.414;2022-11-10T07:44:33;9.20;99.90
45761;DHT22;31471;51.040;14.414;2022-11-10T07:47:19;9.20;99.90
45761;DHT22;31471;51.040;14.414;2022-11-10T07:50:03;9.30;99.90
45761;DHT22;31471;51.040;14.414;2022-11-10T07:52:48;9.30;99.90
45761;DHT22;31471;51.040;14.414;2022-11-10T07:55:32;9.30;99.90
45761;DHT22;31471;51.040;14.414;2022-11-10T07:58:17;9.30;99.90
45761;DHT22;31471;51.040;14.414;2022-11-10T08:01:02;9.30;99.90
45761;DHT22;31471;51.040;14.414;2022-11-10T08:03:46;9.40;99.90
45761;DHT22;31471;51.040;14.414;2022-11-10T08:06:30;9.40;99.90
45761;DHT22;31471;51.040;14.414;2022-11-10T08:09:15;9.40;99.90
45761;DHT22;31471;51.040;14.414;2022-11-10T08:11:59;9.40;99.90
45761;DHT22;31471;51.040;14.414;2022-11-10T08:14:43;9.50;99.90
45761;DHT22;31471;51.040;14.414;2022-11-10T08:17:27;9.50;99.90
45761;DHT22;31471;51.040;14.414;2022-11-10T08:20:11;9.50;99.90
45761;DHT22;31471;51.040;14.414;2022-11-10T08:23:00;9.50;99.90
45761;DHT22;31471;51.040;14.414;2022-11-10T08:25:44;9.50;99.90
45761;DHT22;31471;51.040;14.414;2022-11-10T08:28:30;9.60;99.90
45761;DHT22;31471;51.040;14.414;2022-11-10T08:31:15;9.60;99.90
45761;DHT22;31471;51.040;14.414;2022-11-10T08:33:59;9.70;99.90
45761;DHT22;31471;51.040;14.414;2022-11-10T08:36:44;9.70;99.90
45761;DHT22;31471;51.040;14.414;2022-11-10T08:39:28;9.70;99.90
45761;DHT22;31471;51.040;14.414;2022-11-10T08:42:12;9.70;99.90
45761;DHT22;31471;51.040;14.414;2022-11-10T08:44:56;9.70;99.90
45761;DHT22;31471;51.040;14.414;2022-11-10T08:47:40;9.70;99.90
45761;DHT22;31471;51.040;14.414;2022-11-10T08:50:25;9.80;99.90
45761;DHT22;31471;51.040;14.414;2022-11-10T08:53:16;9.80;99.90
45761;DHT22;31471;51.040;14.414;2022-11-10T08:56:00;9.90;99.90
45761;DHT22;31471;51.040;14.414;2022-11-10T08:58:44;10.00;99.90
45761;DHT22;31471;51.040;14.414;2022-11-10T09:01:28;10.20;99.90
45761;DHT22;31471;51.040;14.414;2022-11-10T09:04:12;10.30;99.90
45761;DHT22;31471;51.040;14.414;2022-11-10T09:06:58;10.30;99.90
45761;DHT22;31471;51.040;14.414;2022-11-10T09:09:42;10.40;99.90
45761;DHT22;31471;51.040;14.414;2022-11-10T09:12:26;10.40;99.90
45761;DHT22;31471;51.040;14.414;2022-11-10T09:15:11;10.40;99.90
45761;DHT22;31471;51.040;14.414;2022-11-10T09:18:03;10.40;99.90
45761;DHT22;31471;51.040;14.414;2022-11-10T09:20:47;10.40;99.90
45761;DHT22;31471;51.040;14.414;2022-11-10T09:23:31;10.40;99.90
45761;DHT22;31471;51.040;14.414;2022-11-10T09:26:15;10.40;99.90
45761;DHT22;31471;51.040;14.414;2022-11-10T09:29:00;10.50;99.90
45761;DHT22;31471;51.040;14.414;2022-11-10T09:31:44;10.50;99.90
45761;DHT22;31471;51.040;14.414;2022-11-10T09:34:28;10.60;99.90
45761;DHT22;31471;51.040;14.414;2022-11-10T09:37:12;10.70;99.90
45761;DHT22;31471;51.040;14.414;2022-11-10T09:39:56;10.70;99.90
45761;DHT22;31471;51.040;14.414;2022-11-10T09:42:40;10.80;99.90
45761;DHT22;31471;51.040;14.414;2022-11-10T09:45:28;10.90;99.90
45761;DHT22;31471;51.040;14.414;2022-11-10T09:48:36;11.10;99.90
45761;DHT22;31471;51.040;14.414;2022-11-10T09:51:24;11.20;99.90
45761;DHT22;31471;51.040;14.414;2022-11-10T09:57:04;11.40;99.90
45761;DHT22;31471;51.040;14.414;2022-11-10T09:59:49;11.60;99.90
45761;DHT22;31471;51.040;14.414;2022-11-10T10:02:38;11.50;99.90
45761;DHT22;31471;51.040;14.414;2022-11-10T10:08:48;11.40;99.90
45761;DHT22;31471;51.040;14.414;2022-11-10T10:18:47;11.40;99.90
45761;DHT22;31471;51.040;14.414;2022-11-10T10:24:32;11.40;99.90
45761;DHT22;31471;51.040;14.414;2022-11-10T10:27:24;11.30;99.90
45761;DHT22;31471;51.040;14.414;2022-11-10T10:30:19;11.30;99.90
45761;DHT22;31471;51.040;14.414;2022-11-10T10:33:18;11.40;99.90
45761;DHT22;31471;51.040;14.414;2022-11-10T10:36:08;11.50;99.90
45761;DHT22;31471;51.040;14.414;2022-11-10T10:38:56;11.50;99.90
45761;DHT22;31471;51.040;14.414;2022-11-10T10:41:43;11.40;99.90
45761;DHT22;31471;51.040;14.414;2022-11-10T10:44:28;11.40;99.90
45761;DHT22;31471;51.040;14.414;2022-11-10T10:47:12;11.30;99.90
45761;DHT22;31471;51.040;14.414;2022-11-10T10:53:05;11.30;99.90
45761;DHT22;31471;51.040;14.414;2022-11-10T10:56:06;11.30;99.90
45761;DHT22;31471;51.040;14.414;2022-11-10T10:59:02;11.40;99.90
45761;DHT22;31471;51.040;14.414;2022-11-10T11:01:51;11.50;99.90
45761;DHT22;31471;51.040;14.414;2022-11-10T11:04:37;11.60;99.90
45761;DHT22;31471;51.040;14.414;2022-11-10T11:07:23;11.50;99.90
45761;DHT22;31471;51.040;14.414;2022-11-10T11:10:25;11.50;99.90
45761;DHT22;31471;51.040;14.414;2022-11-10T11:13:24;11.40;99.90
45761;DHT22;31471;51.040;14.414;2022-11-10T11:16:09;11.40;99.90
45761;DHT22;31471;51.040;14.414;2022-11-10T11:18:55;11.50;99.90
45761;DHT22;31471;51.040;14.414;2022-11-10T11:22:03;11.70;99.90
45761;DHT22;31471;51.040;14.414;2022-11-10T11:24:58;11.70;99.90
45761;DHT22;31471;51.040;14.414;2022-11-10T11:28:09;11.70;99.90
45761;DHT22;31471;51.040;14.414;2022-11-10T11:31:25;11.80;99.90
45761;DHT22;31471;51.040;14.414;2022-11-10T11:34:26;11.80;99.90
45761;DHT22;31471;51.040;14.414;2022-11-10T11:38:12;11.80;99.90
45761;DHT22;31471;51.040;14.414;2022-11-10T11:50:28;11.90;99.90
45761;DHT22;31471;51.040;14.414;2022-11-10T11:53:37;11.90;99.90
45761;DHT22;31471;51.040;14.414;2022-11-10T11:56:43;11.90;99.90
45761;DHT22;31471;51.040;14.414;2022-11-10T12:12:18;12.40;99.90
45761;DHT22;31471;51.040;14.414;2022-11-10T12:18:39;12.70;99.90
45761;DHT22;31471;51.040;14.414;2022-11-10T12:21:55;12.90;99.90
45761;DHT22;31471;51.040;14.414;2022-11-10T12:24:53;12.70;99.90
45761;DHT22;31471;51.040;14.414;2022-11-10T12:27:46;12.80;99.90
45761;DHT22;31471;51.040;14.414;2022-11-10T12:30:33;12.80;99.90
45761;DHT22;31471;51.040;14.414;2022-11-10T12:33:38;12.70;99.90
45761;DHT22;31471;51.040;14.414;2022-11-10T12:36:27;12.80;99.90
45761;DHT22;31471;51.040;14.414;2022-11-10T12:39:53;12.90;99.90
45761;DHT22;31471;51.040;14.414;2022-11-10T12:42:30;12.90;99.90
45761;DHT22;31471;51.040;14.414;2022-11-10T12:45:22;13.00;99.90
45761;DHT22;31471;51.040;14.414;2022-11-10T12:48:10;12.90;99.90
45761;DHT22;31471;51.040;14.414;2022-11-10T12:51:06;13.00;99.90
45761;DHT22;31471;51.040;14.414;2022-11-10T12:53:54;12.90;99.90
45761;DHT22;31471;51.040;14.414;2022-11-10T12:59:32;12.40;99.90
45761;DHT22;31471;51.040;14.414;2022-11-10T13:02:32;12.50;99.90
45761;DHT22;31471;51.040;14.414;2022-11-10T13:05:38;12.50;99.90
45761;DHT22;31471;51.040;14.414;2022-11-10T13:08:25;12.60;99.90
45761;DHT22;31471;51.040;14.414;2022-11-10T13:14:21;12.60;99.90
45761;DHT22;31471;51.040;14.414;2022-11-10T13:17:08;12.50;99.90
45761;DHT22;31471;51.040;14.414;2022-11-10T13:19:57;12.40;99.90
45761;DHT22;31471;51.040;14.414;2022-11-10T13:22:43;12.30;99.90
45761;DHT22;31471;51.040;14.414;2022-11-10T13:46:02;12.20;99.90
45761;DHT22;31471;51.040;14.414;2022-11-10T13:55:18;11.90;99.90
45761;DHT22;31471;51.040;14.414;2022-11-10T13:58:08;11.90;99.90
45761;DHT22;31471;51.040;14.414;2022-11-10T14:04:00;12.00;99.90
45761;DHT22;31471;51.040;14.414;2022-11-10T14:06:53;12.00;99.90
45761;DHT22;31471;51.040;14.414;2022-11-10T14:09:40;12.10;99.90
45761;DHT22;31471;51.040;14.414;2022-11-10T14:12:45;12.00;99.90
45761;DHT22;31471;51.040;14.414;2022-11-10T14:15:42;12.00;99.90
45761;DHT22;31471;51.040;14.414;2022-11-10T14:18:38;12.00;99.90
45761;DHT22;31471;51.040;14.414;2022-11-10T14:21:44;11.90;99.90
45761;DHT22;31471;51.040;14.414;2022-11-10T14:24:36;12.00;99.90
45761;DHT22;31471;51.040;14.414;2022-11-10T14:27:31;11.90;99.90
45761;DHT22;31471;51.040;14.414;2022-11-10T14:30:21;11.90;99.90
45761;DHT22;31471;51.040;14.414;2022-11-10T14:33:12;11.90;99.90
45761;DHT22;31471;51.040;14.414;2022-11-10T14:35:59;11.90;99.90
45761;DHT22;31471;51.040;14.414;2022-11-10T14:38:44;11.80;99.90
45761;DHT22;31471;51.040;14.414;2022-11-10T14:41:28;11.80;99.90
45761;DHT22;31471;51.040;14.414;2022-11-10T14:44:18;11.70;99.90
45761;DHT22;31471;51.040;14.414;2022-11-10T14:47:27;11.70;99.90
45761;DHT22;31471;51.040;14.414;2022-11-10T14:53:22;11.70;99.90
45761;DHT22;31471;51.040;14.414;2022-11-10T14:56:14;11.60;99.90
45761;DHT22;31471;51.040;14.414;2022-11-10T14:59:01;11.50;99.90
45761;DHT22;31471;51.040;14.414;2022-11-10T15:01:54;11.50;99.90
45761;DHT22;31471;51.040;14.414;2022-11-10T15:04:39;11.50;99.90
45761;DHT22;31471;51.040;14.414;2022-11-10T15:07:24;11.50;99.90
45761;DHT22;31471;51.040;14.414;2022-11-10T15:10:20;11.50;99.90
45761;DHT22;31471;51.040;14.414;2022-11-10T15:13:18;11.40;99.90
45761;DHT22;31471;51.040;14.414;2022-11-10T15:19:26;11.40;99.90
45761;DHT22;31471;51.040;14.414;2022-11-10T15:25:21;11.40;99.90
45761;DHT22;31471;51.040;14.414;2022-11-10T15:28:20;11.40;99.90
45761;DHT22;31471;51.040;14.414;2022-11-10T15:31:08;11.30;99.90
45761;DHT22;31471;51.040;14.414;2022-11-10T15:33:58;11.30;99.90
45761;DHT22;31471;51.040;14.414;2022-11-10T15:36:43;11.20;99.90
45761;DHT22;31471;51.040;14.414;2022-11-10T15:39:27;11.20;99.90
45761;DHT22;31471;51.040;14.414;2022-11-10T15:42:16;11.20;99.90
45761;DHT22;31471;51.040;14.414;2022-11-10T15:45:01;11.20;99.90
45761;DHT22;31471;51.040;14.414;2022-11-10T15:47:45;11.00;99.90
45761;DHT22;31471;51.040;14.414;2022-11-10T15:50:29;11.00;99.90
45761;DHT22;31471;51.040;14.414;2022-11-10T15:53:22;10.90;99.90
45761;DHT22;31471;51.040;14.414;2022-11-10T15:56:07;11.00;99.90
45761;DHT22;31471;51.040;14.414;2022-11-10T15:58:54;11.00;99.90
45761;DHT22;31471;51.040;14.414;2022-11-10T16:01:40;11.10;99.90
45761;DHT22;31471;51.040;14.414;2022-11-10T16:04:25;11.20;99.90
45761;DHT22;31471;51.040;14.414;2022-11-10T16:07:10;11.10;99.90
45761;DHT22;31471;51.040;14.414;2022-11-10T16:09:54;11.00;99.90
45761;DHT22;31471;51.040;14.414;2022-11-10T16:12:38;10.80;99.90
45761;DHT22;31471;51.040;14.414;2022-11-10T16:15:22;10.90;99.90
45761;DHT22;31471;51.040;14.414;2022-11-10T16:18:21;10.70;99.90
45761;DHT22;31471;51.040;14.414;2022-11-10T16:21:05;10.60;99.90
45761;DHT22;31471;51.040;14.414;2022-11-10T16:23:50;10.50;99.90
45761;DHT22;31471;51.040;14.414;2022-11-10T16:26:34;10.40;99.90
45761;DHT22;31471;51.040;14.414;2022-11-10T16:29:19;10.30;99.90
45761;DHT22;31471;51.040;14.414;2022-11-10T16:32:03;10.20;99.90
45761;DHT22;31471;51.040;14.414;2022-11-10T16:34:48;10.10;99.90
45761;DHT22;31471;51.040;14.414;2022-11-10T16:37:32;10.10;99.90
45761;DHT22;31471;51.040;14.414;2022-11-10T16:40:19;10.10;99.90
45761;DHT22;31471;51.040;14.414;2022-11-10T16:43:03;10.10;99.90
45761;DHT22;31471;51.040;14.414;2022-11-10T16:45:49;10.10;99.90
45761;DHT22;31471;51.040;14.414;2022-11-10T16:48:34;10.00;99.90
45761;DHT22;31471;51.040;14.414;2022-11-10T16:51:41;9.90;99.90
45761;DHT22;31471;51.040;14.414;2022-11-10T16:54:25;9.90;99.90
45761;DHT22;31471;51.040;14.414;2022-11-10T16:57:12;9.90;99.90
45761;DHT22;31471;51.040;14.414;2022-11-10T16:59:57;9.80;99.90
45761;DHT22;31471;51.040;14.414;2022-11-10T17:02:43;9.80;99.90
45761;DHT22;31471;51.040;14.414;2022-11-10T17:05:27;9.70;99.90
45761;DHT22;31471;51.040;14.414;2022-11-10T17:08:26;9.60;99.90
45761;DHT22;31471;51.040;14.414;2022-11-10T17:11:11;9.60;99.90
45761;DHT22;31471;51.040;14.414;2022-11-10T17:13:55;9.50;99.90
45761;DHT22;31471;51.040;14.414;2022-11-10T17:16:41;9.50;99.90
45761;DHT22;31471;51.040;14.414;2022-11-10T17:19:26;9.40;99.90
45761;DHT22;31471;51.040;14.414;2022-11-10T17:22:15;9.20;99.90
45761;DHT22;31471;51.040;14.414;2022-11-10T17:25:00;9.20;99.90
45761;DHT22;31471;51.040;14.414;2022-11-10T17:27:44;9.10;99.90
45761;DHT22;31471;51.040;14.414;2022-11-10T17:30:28;9.10;99.90
45761;DHT22;31471;51.040;14.414;2022-11-10T17:33:12;9.20;99.90
45761;DHT22;31471;51.040;14.414;2022-11-10T17:35:56;9.20;99.90
45761;DHT22;31471;51.040;14.414;2022-11-10T17:38:41;9.10;99.90
45761;DHT22;31471;51.040;14.414;2022-11-10T17:41:26;9.20;99.90
45761;DHT22;31471;51.040;14.414;2022-11-10T17:44:15;9.20;99.90
45761;DHT22;31471;51.040;14.414;2022-11-10T17:46:59;9.20;99.90
45761;DHT22;31471;51.040;14.414;2022-11-10T17:49:43;9.20;99.90
45761;DHT22;31471;51.040;14.414;2022-11-10T17:52:27;9.30;99.90
45761;DHT22;31471;51.040;14.414;2022-11-10T17:55:20;9.40;99.90
45761;DHT22;31471;51.040;14.414;2022-11-10T17:58:06;9.40;99.90
45761;DHT22;31471;51.040;14.414;2022-11-10T18:00:51;9.50;99.90
45761;DHT22;31471;51.040;14.414;2022-11-10T18:03:35;9.50;99.90
45761;DHT22;31471;51.040;14.414;2022-11-10T18:06:20;9.50;99.90
45761;DHT22;31471;51.040;14.414;2022-11-10T18:09:04;9.60;99.90
45761;DHT22;31471;51.040;14.414;2022-11-10T18:11:48;9.60;99.90
45761;DHT22;31471;51.040;14.414;2022-11-10T18:14:33;9.60;99.90
45761;DHT22;31471;51.040;14.414;2022-11-10T18:17:17;9.60;99.90
45761;DHT22;31471;51.040;14.414;2022-11-10T18:20:02;9.60;99.90
45761;DHT22;31471;51.040;14.414;2022-11-10T18:22:48;9.60;99.90
45761;DHT22;31471;51.040;14.414;2022-11-10T18:25:32;9.60;99.90
45761;DHT22;31471;51.040;14.414;2022-11-10T18:28:16;9.60;99.90
45761;DHT22;31471;51.040;14.414;2022-11-10T18:31:11;9.60;99.90
45761;DHT22;31471;51.040;14.414;2022-11-10T18:33:55;9.60;99.90
45761;DHT22;31471;51.040;14.414;2022-11-10T18:36:39;9.60;99.90
45761;DHT22;31471;51.040;14.414;2022-11-10T18:39:23;9.50;99.90
45761;DHT22;31471;51.040;14.414;2022-11-10T18:42:08;9.50;99.90
45761;DHT22;31471;51.040;14.414;2022-11-10T18:44:52;9.50;99.90
45761;DHT22;31471;51.040;14.414;2022-11-10T18:47:38;9.50;99.90
45761;DHT22;31471;51.040;14.414;2022-11-10T18:50:22;9.50;99.90
45761;DHT22;31471;51.040;14.414;2022-11-10T18:53:06;9.50;99.90
45761;DHT22;31471;51.040;14.414;2022-11-10T18:55:54;9.40;99.90
45761;DHT22;31471;51.040;14.414;2022-11-10T18:58:39;9.40;99.90
45761;DHT22;31471;51.040;14.414;2022-11-10T19:01:23;9.30;99.90